createdAt,value
2023-02-09T00:02:14.895Z,11.02
2023-02-09T00:04:41.845Z,10.38
2023-02-09T00:07:08.584Z,10.43
2023-02-09T00:09:35.295Z,10.10
2023-02-09T00:12:20.495Z,11.25
2023-02-09T00:14:47.144Z,10.80
2023-02-09T00:17:13.839Z,10.73
2023-02-09T00:19:40.524Z,11.02
2023-02-09T00:22:07.203Z,10.18
2023-02-09T00:24:33.897Z,10.23
2023-02-09T00:27:00.527Z,11.85
2023-02-09T00:29:27.635Z,11.07
2023-02-09T00:31:54.309Z,10.63
2023-02-09T00:34:21.092Z,10.88
2023-02-09T00:36:47.784Z,10.75
2023-02-09T00:39:14.463Z,11.35
2023-02-09T00:42:00.173Z,10.40
2023-02-09T00:44:27.006Z,9.93
2023-02-09T00:46:53.700Z,11.32
2023-02-09T00:49:20.691Z,11.10
2023-02-09T00:51:47.283Z,10.98
2023-02-09T00:54:14.725Z,11.15
2023-02-09T00:56:41.403Z,10.40
2023-02-09T00:59:08.057Z,10.50
2023-02-09T01:01:35.150Z,10.57
2023-02-09T01:04:02.000Z,9.57
2023-02-09T01:06:28.939Z,9.52
2023-02-09T01:08:55.631Z,9.32
2023-02-09T01:11:27.025Z,10.52
2023-02-09T01:13:57.075Z,10.20
2023-02-09T01:16:24.029Z,10.30
2023-02-09T01:18:51.027Z,10.63
2023-02-09T01:21:20.860Z,9.90
2023-02-09T01:23:47.732Z,9.18
2023-02-09T01:26:16.307Z,9.38
2023-02-09T01:28:43.327Z,10.18
2023-02-09T01:31:28.712Z,10.15
2023-02-09T01:33:57.805Z,10.90
2023-02-09T01:36:25.117Z,9.65
2023-02-09T01:38:53.633Z,10.00
2023-02-09T01:41:20.428Z,10.77
2023-02-09T01:44:36.644Z,10.48
2023-02-09T01:47:03.512Z,9.98
2023-02-09T01:49:30.799Z,8.98
2023-02-09T01:52:04.865Z,10.82
2023-02-09T01:54:48.240Z,10.27
2023-02-09T01:57:18.818Z,9.95
2023-02-09T01:59:51.410Z,10.85
2023-02-09T02:02:18.414Z,11.80
2023-02-09T02:04:45.566Z,10.55
2023-02-09T02:07:35.712Z,11.10
2023-02-09T02:10:02.892Z,11.13
2023-02-09T02:12:29.677Z,12.23
2023-02-09T02:14:56.333Z,10.75
2023-02-09T02:18:28.060Z,11.60
2023-02-09T02:21:36.962Z,8.38
2023-02-09T02:24:43.791Z,9.73
2023-02-09T02:27:39.339Z,9.27
2023-02-09T02:30:20.286Z,9.45
2023-02-09T02:42:16.366Z,9.63
2023-02-09T02:44:50.120Z,7.88
2023-02-09T02:47:20.826Z,9.15
2023-02-09T02:50:03.553Z,9.82
2023-02-09T02:52:30.381Z,9.30
2023-02-09T02:55:10.473Z,10.05
2023-02-09T02:57:40.592Z,9.43
2023-02-09T03:00:12.774Z,9.48
2023-02-09T03:02:47.736Z,9.05
2023-02-09T03:05:17.021Z,9.27
2023-02-09T03:07:44.292Z,9.95
2023-02-09T03:10:34.930Z,10.27
2023-02-09T03:13:40.361Z,9.35
2023-02-09T03:16:34.440Z,9.95
2023-02-09T03:19:43.121Z,10.23
2023-02-09T03:22:41.369Z,9.70
2023-02-09T03:25:15.912Z,10.93
2023-02-09T03:27:52.162Z,10.82
2023-02-09T03:30:20.368Z,12.45
2023-02-09T03:32:47.737Z,10.52
2023-02-09T03:35:20.115Z,11.27
2023-02-09T03:40:13.452Z,10.93
2023-02-09T03:42:40.146Z,10.80
2023-02-09T03:45:10.302Z,9.27
2023-02-09T03:47:36.939Z,9.57
2023-02-09T03:50:04.374Z,10.70
2023-02-09T03:52:31.638Z,10.05
2023-02-09T03:54:58.538Z,34.33
2023-02-09T03:57:25.332Z,49.67
2023-02-09T03:59:51.948Z,42.10
2023-02-09T04:02:18.652Z,35.83
2023-02-09T04:04:45.353Z,69.10
2023-02-09T04:07:12.531Z,35.40
2023-02-09T04:09:39.281Z,29.40
2023-02-09T04:12:06.179Z,33.72
2023-02-09T04:14:32.912Z,109.38
2023-02-09T04:16:59.553Z,90.22
2023-02-09T04:19:26.446Z,42.40
2023-02-09T04:21:53.130Z,53.55
2023-02-09T04:24:21.356Z,57.10
2023-02-09T04:26:47.999Z,32.47
2023-02-09T04:29:14.693Z,17.08
2023-02-09T04:31:41.435Z,15.68
2023-02-09T04:34:08.259Z,13.27
2023-02-09T04:36:34.978Z,12.77
2023-02-09T04:39:01.657Z,10.85
2023-02-09T04:41:28.296Z,11.23
2023-02-09T04:43:54.949Z,11.10
2023-02-09T04:46:21.810Z,11.35
2023-02-09T04:48:48.549Z,10.90
2023-02-09T04:51:15.412Z,10.77
2023-02-09T04:53:42.229Z,11.82
2023-02-09T04:56:14.872Z,11.15
2023-02-09T04:59:00.570Z,13.32
2023-02-09T05:01:27.751Z,12.13
2023-02-09T05:03:54.374Z,10.93
2023-02-09T05:06:21.268Z,11.77
2023-02-09T05:08:48.711Z,11.45
2023-02-09T05:11:15.598Z,10.88
2023-02-09T05:13:42.561Z,12.00
2023-02-09T05:16:13.545Z,11.65
2023-02-09T05:18:40.224Z,10.63
2023-02-09T05:21:06.872Z,12.00
2023-02-09T05:23:33.789Z,11.32
2023-02-09T05:26:00.474Z,10.90
2023-02-09T05:28:27.273Z,15.00
2023-02-09T05:30:54.157Z,9.75
2023-02-09T05:33:25.760Z,10.70
2023-02-09T05:35:53.501Z,10.87
2023-02-09T05:38:20.196Z,10.38
2023-02-09T05:40:47.276Z,10.23
2023-02-09T05:43:15.104Z,11.48
2023-02-09T05:45:41.782Z,12.32
2023-02-09T05:48:08.449Z,10.23
2023-02-09T05:50:36.066Z,11.48
2023-02-09T05:53:02.724Z,10.15
2023-02-09T05:55:29.382Z,10.55
2023-02-09T05:57:56.370Z,10.35
2023-02-09T06:00:25.054Z,10.57
2023-02-09T06:02:51.908Z,11.40
2023-02-09T06:05:20.842Z,10.45
2023-02-09T06:07:48.314Z,9.73
2023-02-09T06:10:15.155Z,12.10
2023-02-09T06:12:41.796Z,11.23
2023-02-09T06:15:10.385Z,11.38
2023-02-09T06:17:37.280Z,11.88
2023-02-09T06:20:04.532Z,11.30
2023-02-09T06:22:31.792Z,13.27
2023-02-09T06:24:58.486Z,11.90
2023-02-09T06:27:25.214Z,10.77
2023-02-09T06:29:51.871Z,10.40
2023-02-09T06:32:18.575Z,11.07
2023-02-09T06:34:45.301Z,11.30
2023-02-09T06:37:11.960Z,11.13
2023-02-09T06:39:38.623Z,13.52
2023-02-09T06:42:05.407Z,12.93
2023-02-09T06:44:32.024Z,11.07
2023-02-09T06:46:58.641Z,10.68
2023-02-09T06:49:26.628Z,12.75
2023-02-09T06:51:53.398Z,11.93
2023-02-09T06:54:20.695Z,11.63
2023-02-09T06:56:47.902Z,11.45
2023-02-09T06:59:14.691Z,12.73
2023-02-09T07:01:41.507Z,12.20
2023-02-09T07:04:08.191Z,12.57
2023-02-09T07:06:35.004Z,12.00
2023-02-09T07:09:01.988Z,11.95
2023-02-09T07:11:28.716Z,11.05
2023-02-09T07:13:55.347Z,11.73
2023-02-09T07:16:22.325Z,10.13
2023-02-09T07:18:49.032Z,11.02
2023-02-09T07:21:18.464Z,11.10
2023-02-09T07:23:45.794Z,12.70
2023-02-09T07:26:17.606Z,11.45
2023-02-09T07:28:44.687Z,12.52
2023-02-09T07:31:13.875Z,11.57
2023-02-09T07:33:40.832Z,11.38
2023-02-09T07:36:10.265Z,10.75
2023-02-09T07:38:38.474Z,11.80
2023-02-09T07:41:06.946Z,11.57
2023-02-09T07:43:34.336Z,12.43
2023-02-09T07:46:05.105Z,11.38
2023-02-09T07:48:32.817Z,11.55
2023-02-09T07:50:59.482Z,12.02
2023-02-09T07:53:26.754Z,12.15
2023-02-09T07:55:53.671Z,14.32
2023-02-09T07:58:21.222Z,13.80
2023-02-09T08:00:50.964Z,12.48
2023-02-09T08:03:20.586Z,12.40
2023-02-09T08:06:11.106Z,11.10
2023-02-09T08:08:37.718Z,12.13
2023-02-09T08:11:05.476Z,11.55
2023-02-09T08:13:37.879Z,11.75
2023-02-09T08:18:39.900Z,10.85
2023-02-09T08:21:09.766Z,10.05
2023-02-09T08:23:39.018Z,11.05
2023-02-09T08:26:10.047Z,10.40
2023-02-09T08:28:44.052Z,10.55
2023-02-09T08:31:16.583Z,11.25
2023-02-09T08:33:44.706Z,10.98
2023-02-09T08:36:13.034Z,10.15
2023-02-09T08:38:40.232Z,10.60
2023-02-09T08:41:09.773Z,11.70
2023-02-09T08:43:36.835Z,11.30
2023-02-09T08:46:11.830Z,10.13
2023-02-09T08:48:43.669Z,11.45
2023-02-09T08:51:12.789Z,10.77
2023-02-09T08:53:39.733Z,11.98
2023-02-09T08:56:06.912Z,11.23
2023-02-09T08:58:33.614Z,9.25
2023-02-09T09:01:00.536Z,9.27
2023-02-09T09:03:31.261Z,10.82
2023-02-09T09:06:02.502Z,11.18
2023-02-09T09:08:31.100Z,11.95
2023-02-09T09:10:58.025Z,11.77
2023-02-09T09:13:25.187Z,12.98
2023-02-09T09:15:53.986Z,11.20
2023-02-09T09:18:21.328Z,9.75
2023-02-09T09:20:47.985Z,10.88
2023-02-09T09:23:14.688Z,10.20
2023-02-09T09:25:41.960Z,10.90
2023-02-09T09:28:09.395Z,10.52
2023-02-09T09:30:36.826Z,12.88
2023-02-09T09:33:03.656Z,10.63
2023-02-09T09:35:31.066Z,10.63
2023-02-09T09:37:58.545Z,12.20
2023-02-09T09:40:29.124Z,11.07
2023-02-09T09:42:58.283Z,13.13
2023-02-09T09:45:28.034Z,11.50
2023-02-09T09:47:56.332Z,10.63
2023-02-09T09:50:27.967Z,9.88
2023-02-09T09:53:00.950Z,11.00
2023-02-09T09:55:30.751Z,10.25
2023-02-09T09:58:01.217Z,10.02
2023-02-09T10:00:34.193Z,12.73
2023-02-09T10:03:00.903Z,9.30
2023-02-09T10:05:30.126Z,11.95
2023-02-09T10:08:17.186Z,13.32
2023-02-09T10:10:57.676Z,11.18
2023-02-09T10:13:37.107Z,11.50
2023-02-09T10:16:04.250Z,11.27
2023-02-09T10:18:33.226Z,15.70
2023-02-09T10:21:08.884Z,12.43
2023-02-09T10:24:08.805Z,13.38
2023-02-09T10:26:39.294Z,15.50
2023-02-09T10:29:23.146Z,10.25
2023-02-09T10:32:14.562Z,20.40
2023-02-09T10:34:52.671Z,12.60
2023-02-09T10:37:39.807Z,11.73
2023-02-09T10:40:14.459Z,10.77
2023-02-09T10:42:57.629Z,26.77
2023-02-09T10:45:42.047Z,13.95
2023-02-09T10:48:18.888Z,11.80
2023-02-09T10:51:06.769Z,16.60
2023-02-09T10:53:37.044Z,25.80
2023-02-09T10:56:16.664Z,24.73
2023-02-09T10:58:51.211Z,12.45
2023-02-09T11:01:24.368Z,17.45
2023-02-09T11:04:20.712Z,14.80
2023-02-09T11:06:55.258Z,18.23
2023-02-09T11:09:29.261Z,16.75
2023-02-09T11:11:55.977Z,12.63
2023-02-09T11:14:23.232Z,11.60
2023-02-09T11:17:14.666Z,11.63
2023-02-09T11:19:55.805Z,13.15
2023-02-09T11:23:18.211Z,36.05
2023-02-09T11:25:45.764Z,23.77
2023-02-09T11:28:33.779Z,14.60
2023-02-09T11:31:41.926Z,17.33
2023-02-09T11:34:46.963Z,10.50
2023-02-09T11:37:56.285Z,16.02
2023-02-09T11:40:53.851Z,16.90
2023-02-09T11:43:30.981Z,9.38
2023-02-09T11:46:03.678Z,10.90
2023-02-09T11:48:40.770Z,8.95
2023-02-09T11:51:21.085Z,8.45
2023-02-09T11:53:59.407Z,9.02
2023-02-09T11:56:28.219Z,9.27
2023-02-09T11:59:03.787Z,9.00
2023-02-09T12:02:06.108Z,7.68
2023-02-09T12:04:58.571Z,8.57
2023-02-09T12:07:37.229Z,7.47
2023-02-09T12:16:34.902Z,7.00
2023-02-09T12:19:04.136Z,7.75
2023-02-09T12:21:34.163Z,8.55
2023-02-09T12:24:01.573Z,7.47
2023-02-09T12:26:54.165Z,7.03
2023-02-09T12:29:26.348Z,6.38
2023-02-09T12:32:41.186Z,5.75
2023-02-09T12:35:26.493Z,6.20
2023-02-09T12:38:17.981Z,7.85
2023-02-09T12:41:02.396Z,6.78
2023-02-09T12:43:31.101Z,7.60
2023-02-09T12:46:36.652Z,6.32
2023-02-09T12:49:32.547Z,6.45
2023-02-09T12:52:15.274Z,7.38
2023-02-09T12:57:23.888Z,6.63
2023-02-09T13:00:10.697Z,7.38
2023-02-09T13:02:50.109Z,7.47
2023-02-09T13:05:26.755Z,7.13
2023-02-09T13:08:29.040Z,6.68
2023-02-09T13:11:05.425Z,6.87
2023-02-09T13:13:38.126Z,5.78
2023-02-09T13:16:04.661Z,6.07
2023-02-09T13:18:34.465Z,6.65
2023-02-09T13:21:38.434Z,6.10
2023-02-09T13:24:23.581Z,6.55
2023-02-09T13:26:56.336Z,6.90
2023-02-09T13:29:31.417Z,5.43
2023-02-09T13:32:41.278Z,5.65
2023-02-09T13:35:15.884Z,5.18
2023-02-09T13:37:48.905Z,4.90
2023-02-09T13:40:18.473Z,5.60
2023-02-09T13:43:31.299Z,6.05
2023-02-09T13:45:59.467Z,6.20
2023-02-09T13:48:32.490Z,5.07
2023-02-09T13:51:13.296Z,6.68
2023-02-09T13:53:39.897Z,6.63
2023-02-09T13:56:11.212Z,5.88
2023-02-09T13:58:39.614Z,6.53
2023-02-09T14:01:18.091Z,5.63
2023-02-09T14:03:58.257Z,6.13
2023-02-09T14:06:32.606Z,6.13
2023-02-09T14:09:00.242Z,6.22
2023-02-09T14:11:51.676Z,6.80
2023-02-09T14:14:53.050Z,5.03
2023-02-09T14:17:31.883Z,6.15
2023-02-09T14:19:59.625Z,7.13
2023-02-09T14:22:35.574Z,7.03
2023-02-09T14:25:29.538Z,6.85
2023-02-09T14:27:57.795Z,6.82
2023-02-09T14:30:27.888Z,7.03
2023-02-09T14:32:56.652Z,6.18
2023-02-09T14:35:29.181Z,7.95
2023-02-09T14:38:01.500Z,6.75
2023-02-09T14:40:34.278Z,6.90
2023-02-09T14:43:24.949Z,6.50
2023-02-09T14:46:00.935Z,6.88
2023-02-09T14:48:29.388Z,7.25
2023-02-09T14:51:01.514Z,6.88
2023-02-09T14:53:30.993Z,7.43
2023-02-09T14:55:58.793Z,7.50
2023-02-09T14:58:28.399Z,6.75
2023-02-09T15:00:57.365Z,7.28
2023-02-09T15:03:24.052Z,6.85
2023-02-09T15:05:55.110Z,6.57
2023-02-09T15:08:25.253Z,6.32
2023-02-09T15:10:56.040Z,5.90
2023-02-09T15:13:23.110Z,6.38
2023-02-09T15:15:49.887Z,6.57
2023-02-09T15:18:22.034Z,6.90
2023-02-09T15:20:48.894Z,5.90
2023-02-09T15:23:15.937Z,6.30
2023-02-09T15:25:43.304Z,5.78
2023-02-09T15:28:32.260Z,5.47
2023-02-09T15:30:59.401Z,6.50
2023-02-09T15:33:27.250Z,5.90
2023-02-09T15:35:53.920Z,6.35
2023-02-09T15:38:20.582Z,5.93
2023-02-09T15:41:07.924Z,5.15
2023-02-09T15:43:53.972Z,5.97
2023-02-09T15:46:41.823Z,6.13
2023-02-09T15:49:08.988Z,5.82
2023-02-09T15:51:38.140Z,7.57
2023-02-09T15:54:09.477Z,6.38
2023-02-09T15:56:36.691Z,6.70
2023-02-09T15:59:05.473Z,5.97
2023-02-09T16:01:35.765Z,6.85
2023-02-09T16:04:14.040Z,7.00
2023-02-09T16:06:50.964Z,6.43
2023-02-09T16:09:20.502Z,6.45
2023-02-09T16:11:48.465Z,6.93
2023-02-09T16:14:21.280Z,6.57
2023-02-09T16:16:48.769Z,6.35
2023-02-09T16:19:16.848Z,7.03
2023-02-09T16:21:53.051Z,6.80
2023-02-09T16:24:30.732Z,6.82
2023-02-09T16:27:01.985Z,11.02
2023-02-09T16:29:28.938Z,48.42
2023-02-09T16:31:55.879Z,22.30
2023-02-09T16:34:22.616Z,16.33
2023-02-09T16:36:49.667Z,14.40
2023-02-09T16:39:18.529Z,12.85
2023-02-09T16:41:53.591Z,15.18
2023-02-09T16:44:30.385Z,14.98
2023-02-09T16:47:00.590Z,16.05
2023-02-09T16:49:39.562Z,14.70
2023-02-09T16:52:15.112Z,14.07
2023-02-09T16:54:48.284Z,15.13
2023-02-09T16:57:18.148Z,13.43
2023-02-09T16:59:44.909Z,11.25
2023-02-09T17:02:46.379Z,12.00
2023-02-09T17:05:28.791Z,26.63
2023-02-09T17:08:01.075Z,12.48
2023-02-09T17:10:32.715Z,10.82
2023-02-09T17:13:01.881Z,11.25
2023-02-09T17:15:31.930Z,18.10
2023-02-09T17:18:03.497Z,18.20
2023-02-09T17:20:37.232Z,15.25
2023-02-09T17:23:04.208Z,13.13
2023-02-09T17:25:31.142Z,12.05
2023-02-09T17:27:57.876Z,11.55
2023-02-09T17:30:24.586Z,18.08
2023-02-09T17:32:59.561Z,14.50
2023-02-09T17:35:52.930Z,11.93
2023-02-09T17:38:21.823Z,11.73
2023-02-09T17:40:49.332Z,9.60
2023-02-09T17:43:16.226Z,11.13
2023-02-09T17:45:49.283Z,10.48
2023-02-09T17:48:19.721Z,11.25
2023-02-09T17:50:48.704Z,10.13
2023-02-09T17:53:19.072Z,9.43
2023-02-09T17:55:46.646Z,8.23
2023-02-09T17:58:14.483Z,8.13
2023-02-09T18:00:42.337Z,8.60
2023-02-09T18:03:18.093Z,8.77
2023-02-09T18:05:47.501Z,9.25
2023-02-09T18:08:14.500Z,9.07
2023-02-09T18:10:41.112Z,9.75
2023-02-09T18:13:15.696Z,9.95
2023-02-09T18:15:43.246Z,9.77
2023-02-09T18:18:10.294Z,9.50
2023-02-09T18:20:37.267Z,9.57
2023-02-09T18:23:04.926Z,11.80
2023-02-09T18:25:37.031Z,10.38
2023-02-09T18:28:06.633Z,10.25
2023-02-09T18:30:36.865Z,10.50
2023-02-09T18:33:04.936Z,8.23
2023-02-09T18:35:34.613Z,8.45
2023-02-09T18:38:02.184Z,7.85
2023-02-09T18:40:29.783Z,9.05
2023-02-09T18:43:01.256Z,8.57
2023-02-09T18:45:30.465Z,10.10
2023-02-09T18:47:57.618Z,8.98
2023-02-09T18:50:27.200Z,10.38
2023-02-09T18:53:00.137Z,9.00
2023-02-09T18:55:30.727Z,9.07
2023-02-09T18:57:59.780Z,8.20
2023-02-09T19:00:26.870Z,7.80
2023-02-09T19:02:57.576Z,8.82
2023-02-09T19:05:27.714Z,9.73
2023-02-09T19:07:55.850Z,12.25
2023-02-09T19:10:23.505Z,10.85
2023-02-09T19:12:50.186Z,11.20
2023-02-09T19:15:18.256Z,11.48
2023-02-09T19:17:46.176Z,10.88
2023-02-09T19:20:17.319Z,13.40
2023-02-09T19:22:44.209Z,14.02
2023-02-09T19:25:10.869Z,15.15
2023-02-09T19:27:37.615Z,13.60
2023-02-09T19:30:05.109Z,13.68
2023-02-09T19:32:32.209Z,14.95
2023-02-09T19:34:58.842Z,15.40
2023-02-09T19:37:25.568Z,14.50
2023-02-09T19:40:05.048Z,13.40
2023-02-09T19:42:32.669Z,12.27
2023-02-09T19:44:59.303Z,11.65
2023-02-09T19:47:27.341Z,12.38
2023-02-09T19:49:55.548Z,11.23
2023-02-09T19:52:23.065Z,9.00
2023-02-09T19:54:50.636Z,9.93
2023-02-09T19:57:21.748Z,11.13
2023-02-09T19:59:48.515Z,10.30
2023-02-09T20:02:16.586Z,9.48
2023-02-09T20:04:44.054Z,9.68
2023-02-09T20:07:11.136Z,9.05
2023-02-09T20:09:37.832Z,9.80
2023-02-09T20:12:04.886Z,9.15
2023-02-09T20:14:33.573Z,10.20
2023-02-09T20:17:00.526Z,9.55
2023-02-09T20:19:27.284Z,9.85
2023-02-09T20:21:53.952Z,10.93
2023-02-09T20:24:20.626Z,9.77
2023-02-09T20:26:48.123Z,9.80
2023-02-09T20:29:16.730Z,9.88
2023-02-09T20:31:43.967Z,10.43
2023-02-09T20:34:13.212Z,10.20
2023-02-09T20:36:41.677Z,10.10
2023-02-09T20:39:13.297Z,10.20
2023-02-09T20:41:59.912Z,9.00
2023-02-09T20:44:45.180Z,9.38
2023-02-09T20:47:11.755Z,10.25
2023-02-09T20:49:40.494Z,8.65
2023-02-09T20:52:07.796Z,9.27
2023-02-09T20:54:34.673Z,9.40
2023-02-09T20:57:01.292Z,9.73
2023-02-09T20:59:28.084Z,9.23
2023-02-09T21:01:54.684Z,8.48
2023-02-09T21:04:21.497Z,8.23
2023-02-09T21:06:48.510Z,8.80
2023-02-09T21:09:15.976Z,8.63
2023-02-09T21:11:42.946Z,7.70
2023-02-09T21:14:21.660Z,8.32
2023-02-09T21:16:56.159Z,7.65
2023-02-09T21:19:24.361Z,8.02
2023-02-09T21:21:51.255Z,7.47
2023-02-09T21:24:18.322Z,7.43
2023-02-09T21:26:45.451Z,6.78
2023-02-09T21:29:13.643Z,7.57
2023-02-09T21:31:40.495Z,8.60
2023-02-09T21:34:07.214Z,8.48
2023-02-09T21:36:37.434Z,8.25
2023-02-09T21:39:04.652Z,8.20
2023-02-09T21:41:49.599Z,7.85
2023-02-09T21:44:16.211Z,7.72
2023-02-09T21:46:42.927Z,7.20
2023-02-09T21:49:12.381Z,7.05
2023-02-09T21:51:40.298Z,7.25
2023-02-09T21:54:06.912Z,6.93
2023-02-09T21:56:33.651Z,6.90
2023-02-09T21:59:00.220Z,7.15
2023-02-09T22:01:26.911Z,6.35
2023-02-09T22:03:57.204Z,6.03
2023-02-09T22:06:29.899Z,6.22
2023-02-09T22:08:56.882Z,6.68
2023-02-09T22:11:23.540Z,7.32
2023-02-09T22:13:50.150Z,7.15
2023-02-09T22:16:19.397Z,6.50
2023-02-09T22:18:46.124Z,7.15
2023-02-09T22:21:12.857Z,7.25
2023-02-09T22:23:39.545Z,8.00
2023-02-09T22:26:06.589Z,7.93
2023-02-09T22:28:36.412Z,7.85
2023-02-09T22:31:18.118Z,9.13
2023-02-09T22:33:45.229Z,8.23
2023-02-09T22:36:15.007Z,8.15
2023-02-09T22:38:42.194Z,8.25
2023-02-09T22:41:23.531Z,8.15
2023-02-09T22:43:55.645Z,7.35
2023-02-09T22:46:28.988Z,7.70
2023-02-09T22:49:01.509Z,8.55
2023-02-09T22:51:30.764Z,8.27
2023-02-09T22:53:58.814Z,7.10
2023-02-09T22:56:26.638Z,8.07
2023-02-09T22:58:54.166Z,8.23
2023-02-09T23:01:21.119Z,7.95
2023-02-09T23:03:47.884Z,9.60
2023-02-09T23:06:17.938Z,9.65
2023-02-09T23:08:45.093Z,8.48
2023-02-09T23:11:14.811Z,8.52
2023-02-09T23:13:41.784Z,7.95
2023-02-09T23:16:12.626Z,8.40
2023-02-09T23:18:40.323Z,7.82
2023-02-09T23:21:08.112Z,7.72
2023-02-09T23:23:34.751Z,8.68
2023-02-09T23:26:01.590Z,7.13
2023-02-09T23:28:28.654Z,7.55
2023-02-09T23:30:55.402Z,6.22
2023-02-09T23:33:22.233Z,6.40
2023-02-09T23:35:49.224Z,5.95
2023-02-09T23:38:17.959Z,6.68
2023-02-09T23:40:44.624Z,6.18
2023-02-09T23:43:11.303Z,6.43
2023-02-09T23:45:37.943Z,6.50
2023-02-09T23:48:04.832Z,5.68
2023-02-09T23:50:31.461Z,7.25
2023-02-09T23:52:58.075Z,7.22
2023-02-09T23:55:24.713Z,6.78
2023-02-09T23:57:51.315Z,6.85
